createdAt,value
2017-12-04T00:00:38.546Z,0.78
2017-12-04T00:01:38.553Z,0.81
2017-12-04T00:02:38.308Z,0.74
2017-12-04T00:03:38.579Z,0.83
2017-12-04T00:04:38.584Z,0.78
2017-12-04T00:05:38.596Z,0.84
2017-12-04T00:06:38.609Z,0.83
2017-12-04T00:07:38.676Z,0.81
2017-12-04T00:08:38.634Z,0.77
2017-12-04T00:09:38.685Z,0.81
2017-12-04T00:10:38.663Z,0.88
2017-12-04T00:11:38.412Z,0.98
2017-12-04T00:12:38.422Z,0.94
2017-12-04T00:13:38.684Z,0.92
2017-12-04T00:14:38.697Z,0.84
2017-12-04T00:15:38.711Z,0.87
2017-12-04T00:16:38.723Z,0.83
2017-12-04T00:17:38.730Z,0.92
2017-12-04T00:18:38.742Z,0.94
2017-12-04T00:19:38.750Z,0.94
2017-12-04T00:20:38.770Z,0.91
2017-12-04T00:21:38.521Z,0.86
2017-12-04T00:22:38.834Z,0.81
2017-12-04T00:23:38.551Z,0.87
2017-12-04T00:24:38.806Z,0.94
2017-12-04T00:25:38.566Z,0.83
2017-12-04T00:26:38.578Z,0.8
2017-12-04T00:27:38.840Z,0.83
2017-12-04T00:28:38.851Z,0.88
2017-12-04T00:29:38.864Z,0.94
2017-12-04T00:30:38.621Z,0.94
2017-12-04T00:31:38.631Z,0.96
2017-12-04T00:32:38.922Z,0.91
2017-12-04T00:33:38.653Z,0.84
2017-12-04T00:34:38.435Z,0.95
2017-12-04T00:35:38.935Z,0.87
2017-12-04T00:36:38.688Z,0.76
2017-12-04T00:37:38.749Z,0.81
2017-12-04T00:38:38.715Z,0.8
2017-12-04T00:39:38.471Z,0.83
2017-12-04T00:40:38.983Z,0.73
2017-12-04T00:41:38.752Z,0.74
2017-12-04T00:42:38.504Z,0.81
2017-12-04T00:43:39.024Z,0.87
2017-12-04T00:44:39.030Z,0.94
2017-12-04T00:45:38.535Z,0.95
2017-12-04T00:46:39.057Z,0.84
2017-12-04T00:47:38.559Z,0.91
2017-12-04T00:48:39.082Z,0.91
2017-12-04T00:49:39.082Z,0.92
2017-12-04T00:50:38.841Z,0.94
2017-12-04T00:51:39.107Z,0.81
2017-12-04T00:52:39.118Z,0.83
2017-12-04T00:53:38.623Z,0.88
2017-12-04T00:54:39.188Z,1.01
2017-12-04T00:55:38.901Z,0.98
2017-12-04T00:56:38.657Z,0.95
2017-12-04T00:57:39.179Z,0.94
2017-12-04T00:58:39.185Z,0.96
2017-12-04T00:59:39.197Z,0.87
2017-12-04T01:00:39.208Z,0.94
2017-12-04T01:01:39.217Z,0.96
2017-12-04T01:02:39.232Z,0.94
2017-12-04T01:03:39.000Z,1.02
2017-12-04T01:04:38.998Z,0.92
2017-12-04T01:05:39.263Z,0.96
2017-12-04T01:06:39.023Z,1.08
2017-12-04T01:07:39.300Z,1.22
2017-12-04T01:08:39.298Z,1.01
2017-12-04T01:09:39.304Z,1.05
2017-12-04T01:10:39.065Z,1.06
2017-12-04T01:11:39.325Z,1.17
2017-12-04T01:12:39.088Z,1.23
2017-12-04T01:13:38.846Z,1.17
2017-12-04T01:14:39.361Z,1.12
2017-12-04T01:15:39.371Z,0.96
2017-12-04T01:16:39.134Z,0.88
2017-12-04T01:17:39.401Z,0.95
2017-12-04T01:18:39.414Z,1.04
2017-12-04T01:19:39.188Z,1.08
2017-12-04T01:20:39.433Z,1.04
2017-12-04T01:21:39.440Z,0.94
2017-12-04T01:22:39.203Z,1.06
2017-12-04T01:23:39.463Z,1.01
2017-12-04T01:24:39.477Z,1.06
2017-12-04T01:25:39.232Z,0.94
2017-12-04T01:26:39.516Z,0.92
2017-12-04T01:27:39.003Z,0.92
2017-12-04T01:28:39.525Z,0.95
2017-12-04T01:29:39.531Z,0.77
2017-12-04T01:30:39.588Z,0.87
2017-12-04T01:31:39.554Z,0.86
2017-12-04T01:32:39.567Z,0.83
2017-12-04T01:33:39.577Z,0.84
2017-12-04T01:34:39.333Z,0.81
2017-12-04T01:35:39.609Z,0.84
2017-12-04T01:36:39.356Z,0.98
2017-12-04T01:37:39.367Z,0.98
2017-12-04T01:38:39.378Z,0.87
2017-12-04T01:39:39.644Z,0.87
2017-12-04T01:40:39.658Z,0.92
2017-12-04T01:41:39.412Z,0.91
2017-12-04T01:42:39.422Z,0.91
2017-12-04T01:43:39.437Z,0.94
2017-12-04T01:44:39.697Z,0.94
2017-12-04T01:45:39.711Z,0.83
2017-12-04T01:46:39.466Z,0.78
2017-12-04T01:47:39.480Z,0.84
2017-12-04T01:48:39.741Z,0.86
2017-12-04T01:49:39.803Z,0.8
2017-12-04T01:50:39.512Z,0.8
2017-12-04T01:51:39.777Z,0.84
2017-12-04T01:52:39.786Z,0.83
2017-12-04T01:53:39.546Z,0.88
2017-12-04T01:54:39.556Z,0.95
2017-12-04T01:55:39.823Z,0.95
2017-12-04T01:56:39.581Z,1.05
2017-12-04T01:57:39.842Z,0.96
2017-12-04T01:58:39.599Z,0.94
2017-12-04T01:59:39.862Z,0.88
2017-12-04T02:00:39.875Z,0.94
2017-12-04T02:01:39.636Z,0.88
2017-12-04T02:02:39.894Z,0.8
2017-12-04T02:03:39.908Z,0.94
2017-12-04T02:04:40.057Z,0.91
2017-12-04T02:05:39.997Z,0.86
2017-12-04T02:06:39.960Z,0.81
2017-12-04T02:07:39.954Z,0.81
2017-12-04T02:08:39.712Z,0.88
2017-12-04T02:09:39.976Z,0.95
2017-12-04T02:10:39.738Z,0.94
2017-12-04T02:11:40.006Z,1.02
2017-12-04T02:12:39.753Z,0.94
2017-12-04T02:13:40.027Z,1.02
2017-12-04T02:14:40.030Z,1.13
2017-12-04T02:15:40.045Z,1.08
2017-12-04T02:16:39.798Z,1.12
2017-12-04T02:17:39.812Z,1.24
2017-12-04T02:18:40.076Z,1.24
2017-12-04T02:19:39.832Z,1.26
2017-12-04T02:20:39.921Z,1.23
2017-12-04T02:21:40.111Z,1.22
2017-12-04T02:22:40.129Z,1.08
2017-12-04T02:23:40.133Z,1.06
2017-12-04T02:24:40.144Z,0.98
2017-12-04T02:25:40.161Z,0.92
2017-12-04T02:26:40.167Z,0.94
2017-12-04T02:27:40.173Z,1.02
2017-12-04T02:28:40.186Z,1.06
2017-12-04T02:29:40.196Z,1.06
2017-12-04T02:30:40.208Z,1.13
2017-12-04T02:31:39.967Z,1.17
2017-12-04T02:32:40.241Z,1.14
2017-12-04T02:33:40.009Z,1.24
2017-12-04T02:34:40.255Z,1.23
2017-12-04T02:35:40.026Z,0.99
2017-12-04T02:36:40.296Z,1.01
2017-12-04T02:37:40.092Z,1.14
2017-12-04T02:38:40.056Z,1.1
2017-12-04T02:39:40.316Z,1.14
2017-12-04T02:40:40.070Z,1.14
2017-12-04T02:41:40.362Z,1.01
2017-12-04T02:42:40.397Z,1.14
2017-12-04T02:43:40.358Z,1.12
2017-12-04T02:44:40.374Z,1.24
2017-12-04T02:45:40.376Z,1.1
2017-12-04T02:46:40.391Z,0.96
2017-12-04T02:47:40.463Z,0.96
2017-12-04T02:48:40.199Z,0.88
2017-12-04T02:49:40.171Z,1.01
2017-12-04T02:50:40.444Z,1.01
2017-12-04T02:51:40.195Z,1.22
2017-12-04T02:52:40.513Z,1.22
2017-12-04T02:53:40.215Z,1.17
2017-12-04T02:54:40.480Z,1.14
2017-12-04T02:55:40.607Z,1.12
2017-12-04T02:56:40.517Z,1.02
2017-12-04T02:57:40.522Z,1.12
2017-12-04T02:58:40.273Z,1.17
2017-12-04T02:59:40.536Z,1.06
2017-12-04T03:00:40.293Z,0.94
2017-12-04T03:01:40.305Z,0.87
2017-12-04T03:02:40.316Z,0.96
2017-12-04T03:03:40.582Z,0.94
2017-12-04T03:04:40.595Z,0.86
2017-12-04T03:05:40.352Z,0.83
2017-12-04T03:06:40.619Z,0.69
2017-12-04T03:07:40.634Z,0.68
2017-12-04T03:08:40.637Z,0.74
2017-12-04T03:09:40.396Z,0.74
2017-12-04T03:10:40.458Z,0.83
2017-12-04T03:11:40.670Z,0.87
2017-12-04T03:12:40.682Z,0.94
2017-12-04T03:13:40.694Z,0.87
2017-12-04T03:14:40.453Z,0.73
2017-12-04T03:15:40.719Z,0.77
2017-12-04T03:16:40.729Z,0.74
2017-12-04T03:17:40.487Z,0.73
2017-12-04T03:18:40.750Z,0.77
2017-12-04T03:19:40.761Z,0.86
2017-12-04T03:20:40.520Z,0.83
2017-12-04T03:21:40.785Z,0.69
2017-12-04T03:22:40.794Z,0.8
2017-12-04T03:23:40.553Z,0.8
2017-12-04T03:24:40.822Z,0.83
2017-12-04T03:25:40.324Z,0.87
2017-12-04T03:26:40.333Z,0.76
2017-12-04T03:27:40.597Z,0.84
2017-12-04T03:28:40.663Z,0.74
2017-12-04T03:29:40.892Z,0.86
2017-12-04T03:30:40.900Z,0.83
2017-12-04T03:31:40.916Z,0.86
2017-12-04T03:32:40.903Z,0.74
2017-12-04T03:33:40.921Z,0.76
2017-12-04T03:34:40.426Z,0.69
2017-12-04T03:35:40.941Z,0.86
2017-12-04T03:36:40.958Z,0.8
2017-12-04T03:37:40.965Z,0.91
2017-12-04T03:38:40.723Z,0.8
2017-12-04T03:39:40.483Z,0.87
2017-12-04T03:40:40.994Z,0.95
2017-12-04T03:41:41.006Z,0.94
2017-12-04T03:42:40.766Z,0.83
2017-12-04T03:43:41.036Z,0.66
2017-12-04T03:44:40.538Z,0.73
2017-12-04T03:45:40.805Z,0.65
2017-12-04T03:46:40.605Z,0.6
2017-12-04T03:47:41.080Z,0.59
2017-12-04T03:48:41.083Z,0.69
2017-12-04T03:49:41.093Z,0.68
2017-12-04T03:50:41.111Z,0.66
2017-12-04T03:51:40.610Z,0.62
2017-12-04T03:52:41.138Z,0.62
2017-12-04T03:53:41.135Z,0.78
2017-12-04T03:54:41.149Z,0.86
2017-12-04T03:55:40.907Z,0.77
2017-12-04T03:56:41.169Z,0.81
2017-12-04T03:57:40.677Z,0.81
2017-12-04T03:58:41.190Z,0.73
2017-12-04T03:59:40.953Z,0.7
2017-12-04T04:00:40.972Z,0.83
2017-12-04T04:01:40.973Z,0.8
2017-12-04T04:02:41.236Z,0.8
2017-12-04T04:03:40.743Z,0.8
2017-12-04T04:04:41.256Z,0.88
2017-12-04T04:05:41.017Z,0.86
2017-12-04T04:06:41.315Z,0.87
2017-12-04T04:07:41.044Z,0.87
2017-12-04T04:08:41.306Z,0.94
2017-12-04T04:09:41.345Z,0.95
2017-12-04T04:10:41.328Z,0.84
2017-12-04T04:11:41.341Z,0.84
2017-12-04T04:12:41.100Z,0.88
2017-12-04T04:13:41.104Z,0.87
2017-12-04T04:14:41.373Z,0.84
2017-12-04T04:15:41.126Z,0.87
2017-12-04T04:16:41.408Z,0.74
2017-12-04T04:17:41.151Z,0.7
2017-12-04T04:18:41.162Z,0.7
2017-12-04T04:19:42.680Z,0.65
2017-12-04T04:20:41.182Z,0.74
2017-12-04T04:21:41.196Z,0.74
2017-12-04T04:22:41.207Z,0.65
2017-12-04T04:23:41.474Z,0.73
2017-12-04T04:24:41.490Z,0.73
2017-12-04T04:25:41.488Z,0.74
2017-12-04T04:26:41.248Z,0.74
2017-12-04T04:27:41.513Z,0.91
2017-12-04T04:28:41.269Z,0.8
2017-12-04T04:29:41.281Z,0.88
2017-12-04T04:30:41.546Z,0.86
2017-12-04T04:31:41.559Z,0.83
2017-12-04T04:32:41.567Z,0.84
2017-12-04T04:33:41.580Z,0.88
2017-12-04T04:34:41.353Z,0.78
2017-12-04T04:35:41.350Z,0.81
2017-12-04T04:36:41.369Z,0.81
2017-12-04T04:37:41.622Z,0.87
2017-12-04T04:38:41.531Z,0.81
2017-12-04T04:39:41.649Z,0.73
2017-12-04T04:40:41.439Z,0.78
2017-12-04T04:41:41.669Z,0.7
2017-12-04T04:42:41.683Z,0.92
2017-12-04T04:43:41.442Z,1.01
2017-12-04T04:44:41.452Z,1.05
2017-12-04T04:45:41.712Z,0.94
2017-12-04T04:46:41.471Z,0.92
2017-12-04T04:47:41.742Z,1.02
2017-12-04T04:48:41.494Z,1.06
2017-12-04T04:49:41.756Z,1.17
2017-12-04T04:50:41.774Z,1.04
2017-12-04T04:51:41.781Z,0.95
2017-12-04T04:52:41.792Z,0.94
2017-12-04T04:53:41.560Z,0.94
2017-12-04T04:54:41.812Z,0.94
2017-12-04T04:55:41.828Z,0.88
2017-12-04T04:56:41.582Z,1.01
2017-12-04T04:57:41.407Z,0.95
2017-12-04T04:58:41.856Z,0.95
2017-12-04T04:59:41.870Z,0.98
2017-12-04T05:00:41.630Z,0.96
2017-12-04T05:01:41.912Z,0.87
2017-12-04T05:02:41.904Z,0.94
2017-12-04T05:03:41.882Z,0.87
2017-12-04T05:04:41.928Z,0.84
2017-12-04T05:05:41.681Z,0.77
2017-12-04T05:06:41.692Z,0.81
2017-12-04T05:07:41.962Z,0.88
2017-12-04T05:08:41.981Z,0.78
2017-12-04T05:09:41.724Z,0.77
2017-12-04T05:10:41.742Z,0.87
2017-12-04T05:11:41.749Z,0.83
2017-12-04T05:12:42.014Z,0.8
2017-12-04T05:13:41.775Z,0.84
2017-12-04T05:14:42.033Z,0.86
2017-12-04T05:15:42.058Z,0.88
2017-12-04T05:16:41.855Z,0.8
2017-12-04T05:17:42.074Z,0.86
2017-12-04T05:18:41.828Z,0.99
2017-12-04T05:19:42.094Z,1.05
2017-12-04T05:20:42.103Z,1.02
2017-12-04T05:21:42.113Z,1.04
2017-12-04T05:22:41.626Z,0.98
2017-12-04T05:23:42.135Z,1.05
2017-12-04T05:24:41.899Z,0.92
2017-12-04T05:25:41.907Z,0.88
2017-12-04T05:26:41.919Z,0.95
2017-12-04T05:27:41.674Z,1.13
2017-12-04T05:28:42.192Z,1.1
2017-12-04T05:29:42.202Z,1.12
2017-12-04T05:30:41.966Z,1.12
2017-12-04T05:31:42.278Z,1.06
2017-12-04T05:32:42.235Z,1.06
2017-12-04T05:33:42.253Z,1.05
2017-12-04T05:34:42.270Z,1.19
2017-12-04T05:35:42.019Z,1.06
2017-12-04T05:36:42.283Z,1.05
2017-12-04T05:37:42.296Z,0.99
2017-12-04T05:38:42.310Z,1.04
2017-12-04T05:39:42.068Z,1.04
2017-12-04T05:40:41.826Z,1.05
2017-12-04T05:41:42.380Z,1.01
2017-12-04T05:42:42.350Z,0.92
2017-12-04T05:43:42.108Z,0.87
2017-12-04T05:44:42.373Z,1.04
2017-12-04T05:45:42.388Z,0.92
2017-12-04T05:46:42.396Z,1.08
2017-12-04T05:47:42.423Z,1.04
2017-12-04T05:48:41.915Z,1.02
2017-12-04T05:49:42.428Z,1.28
2017-12-04T05:50:42.494Z,1.2
2017-12-04T05:51:42.461Z,1.16
2017-12-04T05:52:42.461Z,1.22
2017-12-04T05:53:42.477Z,1.13
2017-12-04T05:54:42.233Z,1.13
2017-12-04T05:55:42.345Z,1.02
2017-12-04T05:56:42.253Z,1.08
2017-12-04T05:57:42.267Z,1.16
2017-12-04T05:58:42.280Z,1.19
2017-12-04T05:59:42.548Z,1.19
2017-12-04T06:00:42.299Z,1.22
2017-12-04T06:01:42.314Z,1.13
2017-12-04T06:02:42.577Z,1.13
2017-12-04T06:03:42.593Z,1.06
2017-12-04T06:04:42.608Z,1.16
2017-12-04T06:05:42.664Z,1.17
2017-12-04T06:06:42.619Z,1.12
2017-12-04T06:07:42.640Z,1.17
2017-12-04T06:08:42.392Z,1.19
2017-12-04T06:09:42.664Z,1.19
2017-12-04T06:10:42.669Z,1.2
2017-12-04T06:11:42.429Z,1.22
2017-12-04T06:12:42.447Z,1.28
2017-12-04T06:13:42.447Z,1.16
2017-12-04T06:14:42.710Z,1.19
2017-12-04T06:15:42.722Z,1.2
2017-12-04T06:16:42.738Z,1.2
2017-12-04T06:17:42.494Z,1.3
2017-12-04T06:18:42.504Z,1.34
2017-12-04T06:19:42.516Z,1.28
2017-12-04T06:20:42.830Z,1.22
2017-12-04T06:21:42.561Z,1.28
2017-12-04T06:22:42.551Z,1.14
2017-12-04T06:23:42.566Z,1.2
2017-12-04T06:24:42.578Z,1.2
2017-12-04T06:25:42.585Z,1.06
2017-12-04T06:26:42.867Z,1.14
2017-12-04T06:27:42.861Z,1.14
2017-12-04T06:28:42.630Z,1.2
2017-12-04T06:29:42.884Z,1.08
2017-12-04T06:30:42.641Z,0.95
2017-12-04T06:31:42.656Z,0.91
2017-12-04T06:32:42.919Z,0.92
2017-12-04T06:33:42.676Z,1.14
2017-12-04T06:34:42.942Z,1.1
2017-12-04T06:35:42.756Z,1.13
2017-12-04T06:36:42.968Z,1.17
2017-12-04T06:37:42.972Z,1.17
2017-12-04T06:38:42.744Z,1.2
2017-12-04T06:39:43.000Z,1.22
2017-12-04T06:40:43.015Z,1.32
2017-12-04T06:41:42.764Z,1.2
2017-12-04T06:42:42.777Z,1.19
2017-12-04T06:43:43.041Z,1.28
2017-12-04T06:44:42.800Z,1.31
2017-12-04T06:45:43.062Z,1.28
2017-12-04T06:46:43.078Z,1.32
2017-12-04T06:47:43.085Z,1.13
2017-12-04T06:48:43.101Z,1.26
2017-12-04T06:49:43.120Z,1.22
2017-12-04T06:50:43.126Z,1.23
2017-12-04T06:51:43.183Z,1.13
2017-12-04T06:52:43.143Z,1.16
2017-12-04T06:53:43.162Z,1.23
2017-12-04T06:54:43.169Z,1.28
2017-12-04T06:55:43.176Z,1.38
2017-12-04T06:56:43.190Z,1.32
2017-12-04T06:57:42.951Z,1.45
2017-12-04T06:58:42.959Z,1.32
2017-12-04T06:59:42.717Z,1.3
2017-12-04T07:00:42.980Z,1.3
2017-12-04T07:01:43.243Z,1.26
2017-12-04T07:02:43.257Z,1.17
2017-12-04T07:03:43.271Z,1.24
2017-12-04T07:04:43.279Z,1.38
2017-12-04T07:05:43.299Z,1.38
2017-12-04T07:06:43.316Z,1.32
2017-12-04T07:07:43.070Z,1.4
2017-12-04T07:08:43.376Z,1.35
2017-12-04T07:09:43.085Z,1.45
2017-12-04T07:10:43.096Z,1.49
2017-12-04T07:11:43.107Z,1.53
2017-12-04T07:12:43.371Z,1.44
2017-12-04T07:13:43.384Z,1.34
2017-12-04T07:14:42.890Z,1.42
2017-12-04T07:15:43.407Z,1.44
2017-12-04T07:16:43.162Z,1.48
2017-12-04T07:17:43.174Z,1.41
2017-12-04T07:18:43.442Z,1.49
2017-12-04T07:19:43.449Z,1.49
2017-12-04T07:20:43.464Z,1.62
2017-12-04T07:21:43.217Z,1.62
2017-12-04T07:22:43.484Z,1.62
2017-12-04T07:23:43.290Z,1.7
2017-12-04T07:24:43.511Z,1.6
2017-12-04T07:25:43.517Z,1.76
2017-12-04T07:26:43.528Z,1.66
2017-12-04T07:27:43.545Z,1.62
2017-12-04T07:28:43.050Z,1.71
2017-12-04T07:29:43.313Z,1.58
2017-12-04T07:30:43.579Z,1.71
2017-12-04T07:31:43.593Z,1.66
2017-12-04T07:32:43.602Z,1.63
2017-12-04T07:33:43.610Z,1.6
2017-12-04T07:34:43.372Z,1.59
2017-12-04T07:35:43.632Z,1.7
2017-12-04T07:36:43.647Z,1.78
2017-12-04T07:37:43.412Z,1.68
2017-12-04T07:38:43.469Z,1.71
2017-12-04T07:39:43.195Z,1.63
2017-12-04T07:40:43.442Z,1.49
2017-12-04T07:41:43.199Z,1.48
2017-12-04T07:42:43.715Z,1.48
2017-12-04T07:43:43.475Z,1.53
2017-12-04T07:44:43.489Z,1.68
2017-12-04T07:45:43.802Z,1.77
2017-12-04T07:46:43.513Z,1.68
2017-12-04T07:47:43.272Z,1.48
2017-12-04T07:48:43.787Z,1.56
2017-12-04T07:49:43.546Z,1.67
2017-12-04T07:50:43.560Z,1.63
2017-12-04T07:51:43.821Z,1.48
2017-12-04T07:52:43.581Z,1.49
2017-12-04T07:53:43.846Z,1.6
2017-12-04T07:54:43.604Z,1.59
2017-12-04T07:55:43.423Z,1.67
2017-12-04T07:56:43.880Z,1.66
2017-12-04T07:57:43.643Z,1.66
2017-12-04T07:58:43.651Z,1.7
2017-12-04T07:59:43.963Z,1.62
2017-12-04T08:00:43.983Z,1.63
2017-12-04T08:01:43.938Z,1.6
2017-12-04T08:02:43.950Z,1.62
2017-12-04T08:03:43.710Z,1.59
2017-12-04T08:04:43.980Z,1.44
2017-12-04T08:05:43.485Z,1.59
2017-12-04T08:06:43.749Z,1.63
2017-12-04T08:07:43.510Z,1.56
2017-12-04T08:08:44.030Z,1.56
2017-12-04T08:09:44.038Z,1.48
2017-12-04T08:10:44.100Z,1.48
2017-12-04T08:11:44.063Z,1.55
2017-12-04T08:12:44.074Z,1.52
2017-12-04T08:13:43.839Z,1.6
2017-12-04T08:14:43.845Z,1.63
2017-12-04T08:15:43.854Z,1.58
2017-12-04T08:16:43.869Z,1.44
2017-12-04T08:17:43.882Z,1.52
2017-12-04T08:18:43.889Z,1.55
2017-12-04T08:19:43.904Z,1.63
2017-12-04T08:20:43.915Z,1.66
2017-12-04T08:21:44.180Z,1.63
2017-12-04T08:22:43.938Z,1.56
2017-12-04T08:23:44.207Z,1.62
2017-12-04T08:24:44.217Z,1.7
2017-12-04T08:25:43.773Z,1.76
2017-12-04T08:26:44.239Z,1.67
2017-12-04T08:27:43.995Z,1.63
2017-12-04T08:28:44.259Z,1.6
2017-12-04T08:29:44.276Z,1.78
2017-12-04T08:30:44.037Z,1.73
2017-12-04T08:31:44.301Z,1.85
2017-12-04T08:32:43.808Z,1.78
2017-12-04T08:33:44.072Z,1.91
2017-12-04T08:34:44.389Z,1.91
2017-12-04T08:35:44.349Z,1.95
2017-12-04T08:36:44.358Z,2.06
2017-12-04T08:37:44.368Z,2.15
2017-12-04T08:38:43.879Z,2.17
2017-12-04T08:39:44.402Z,2.2
2017-12-04T08:40:44.459Z,2.17
2017-12-04T08:41:44.435Z,2.17
2017-12-04T08:42:44.176Z,2.2
2017-12-04T08:43:44.457Z,2.18
2017-12-04T08:44:44.205Z,2.26
2017-12-04T08:45:44.467Z,2.29
2017-12-04T08:46:44.227Z,2.32
2017-12-04T08:47:44.489Z,2.26
2017-12-04T08:48:44.505Z,2.07
2017-12-04T08:49:44.518Z,2.07
2017-12-04T08:50:44.531Z,2.17
2017-12-04T08:51:44.288Z,2.25
2017-12-04T08:52:44.555Z,2.18
2017-12-04T08:53:44.566Z,2.24
2017-12-04T08:54:44.578Z,2.17
2017-12-04T08:55:44.588Z,2.08
2017-12-04T08:56:44.661Z,2.08
2017-12-04T08:57:44.633Z,2.13
2017-12-04T08:58:44.390Z,2.07
2017-12-04T08:59:44.640Z,2.17
2017-12-04T09:00:44.397Z,2.18
2017-12-04T09:01:44.418Z,2.14
2017-12-04T09:02:44.169Z,2.29
2017-12-04T09:03:44.432Z,2.15
2017-12-04T09:04:44.191Z,2.26
2017-12-04T09:05:44.716Z,2.22
2017-12-04T09:06:44.469Z,2.25
2017-12-04T09:07:44.752Z,2.47
2017-12-04T09:08:44.745Z,2.47
2017-12-04T09:09:44.764Z,2.54
2017-12-04T09:10:44.774Z,2.39
2017-12-04T09:11:44.833Z,2.54
2017-12-04T09:12:44.548Z,2.54
2017-12-04T09:13:44.558Z,2.42
2017-12-04T09:14:44.826Z,2.26
2017-12-04T09:15:44.860Z,2.35
2017-12-04T09:16:44.895Z,2.28
2017-12-04T09:17:44.864Z,2.26
2017-12-04T09:18:44.368Z,2.33
2017-12-04T09:19:44.888Z,2.38
2017-12-04T09:20:44.899Z,2.5
2017-12-04T09:21:44.926Z,2.39
2017-12-04T09:22:44.929Z,2.51
2017-12-04T09:23:44.937Z,2.39
2017-12-04T09:24:44.943Z,2.38
2017-12-04T09:25:44.958Z,2.32
2017-12-04T09:26:45.028Z,2.38
2017-12-04T09:27:44.752Z,2.46
2017-12-04T09:28:45.049Z,2.36
2017-12-04T09:29:44.762Z,2.42
2017-12-04T09:30:44.769Z,2.36
2017-12-04T09:31:44.780Z,2.47
2017-12-04T09:32:45.047Z,2.47
2017-12-04T09:33:44.815Z,2.35
2017-12-04T09:34:45.069Z,2.42
2017-12-04T09:35:45.081Z,2.44
2017-12-04T09:36:45.100Z,2.46
2017-12-04T09:37:44.862Z,2.32
2017-12-04T09:38:44.870Z,2.49
2017-12-04T09:39:44.879Z,2.5
2017-12-04T09:40:45.163Z,2.65
2017-12-04T09:41:44.956Z,2.44
2017-12-04T09:42:44.923Z,2.46
2017-12-04T09:43:45.179Z,2.49
2017-12-04T09:44:44.688Z,2.43
2017-12-04T09:45:45.326Z,2.46
2017-12-04T09:46:45.217Z,2.42
2017-12-04T09:47:44.976Z,2.5
2017-12-04T09:48:45.285Z,2.46
2017-12-04T09:49:45.002Z,2.5
2017-12-04T09:50:45.016Z,2.38
2017-12-04T09:51:45.281Z,2.47
2017-12-04T09:52:45.037Z,2.39
2017-12-04T09:53:45.306Z,2.36
2017-12-04T09:54:45.315Z,2.32
2017-12-04T09:55:45.327Z,2.43
2017-12-04T09:56:45.391Z,2.43
2017-12-04T09:57:44.847Z,2.46
2017-12-04T09:58:45.115Z,2.5
2017-12-04T09:59:45.125Z,2.61
2017-12-04T10:00:45.135Z,2.46
2017-12-04T10:01:45.404Z,2.44
2017-12-04T10:02:44.909Z,2.42
2017-12-04T10:03:45.181Z,2.32
2017-12-04T10:04:45.444Z,2.29
2017-12-04T10:05:45.198Z,2.42
2017-12-04T10:06:45.212Z,2.31
2017-12-04T10:07:45.478Z,2.25
2017-12-04T10:08:45.487Z,2.29
2017-12-04T10:09:45.449Z,2.28
2017-12-04T10:10:45.280Z,2.31
2017-12-04T10:11:45.322Z,2.31
2017-12-04T10:12:45.537Z,2.32
2017-12-04T10:13:45.549Z,2.43
2017-12-04T10:14:45.567Z,2.25
2017-12-04T10:15:45.577Z,2.35
2017-12-04T10:16:45.332Z,2.2
2017-12-04T10:17:45.599Z,2.18
2017-12-04T10:18:45.610Z,2.06
2017-12-04T10:19:45.368Z,2.06
2017-12-04T10:20:45.631Z,2.07
2017-12-04T10:21:45.393Z,2.07
2017-12-04T10:22:45.669Z,1.95
2017-12-04T10:23:45.437Z,1.92
2017-12-04T10:24:45.427Z,2.07
2017-12-04T10:25:45.445Z,2.04
2017-12-04T10:26:45.201Z,2.04
2017-12-04T10:27:45.475Z,2.13
2017-12-04T10:28:45.476Z,2.2
2017-12-04T10:29:45.540Z,2.24
2017-12-04T10:30:45.758Z,2.15
2017-12-04T10:31:45.622Z,2.28
2017-12-04T10:32:45.526Z,2.25
2017-12-04T10:33:45.791Z,2.28
2017-12-04T10:34:45.552Z,2.36
2017-12-04T10:35:45.821Z,2.35
2017-12-04T10:36:45.830Z,2.28
2017-12-04T10:37:45.842Z,2.31
2017-12-04T10:38:45.623Z,2.39
2017-12-04T10:39:45.358Z,2.43
2017-12-04T10:40:45.623Z,2.53
2017-12-04T10:41:45.382Z,2.46
2017-12-04T10:42:45.897Z,2.54
2017-12-04T10:43:45.911Z,2.53
2017-12-04T10:44:45.974Z,2.6
2017-12-04T10:45:45.939Z,2.61
2017-12-04T10:46:45.950Z,2.74
2017-12-04T10:47:45.458Z,2.71
2017-12-04T10:48:46.036Z,2.62
2017-12-04T10:49:45.732Z,2.85
2017-12-04T10:50:45.493Z,2.69
2017-12-04T10:51:45.761Z,2.69
2017-12-04T10:52:46.028Z,2.71
2017-12-04T10:53:45.788Z,2.71
2017-12-04T10:54:45.806Z,2.71
2017-12-04T10:55:46.061Z,2.69
2017-12-04T10:56:46.072Z,2.83
2017-12-04T10:57:46.084Z,2.71
2017-12-04T10:58:45.844Z,2.68
2017-12-04T10:59:46.259Z,2.85
2017-12-04T11:00:46.148Z,2.75
2017-12-04T11:01:46.136Z,2.71
2017-12-04T11:02:45.926Z,2.8
2017-12-04T11:03:45.911Z,2.62
2017-12-04T11:04:46.173Z,2.57
2017-12-04T11:05:46.190Z,2.71
2017-12-04T11:06:45.946Z,2.74
2017-12-04T11:07:46.211Z,2.6
2017-12-04T11:08:46.225Z,2.68
2017-12-04T11:09:45.989Z,2.69
2017-12-04T11:10:46.251Z,2.83
2017-12-04T11:11:46.262Z,2.87
2017-12-04T11:12:46.026Z,2.86
2017-12-04T11:13:46.310Z,2.79
2017-12-04T11:14:45.847Z,2.79
2017-12-04T11:15:46.061Z,2.85
2017-12-04T11:16:46.332Z,2.82
2017-12-04T11:17:46.341Z,2.75
2017-12-04T11:18:46.098Z,2.74
2017-12-04T11:19:46.364Z,2.68
2017-12-04T11:20:46.126Z,2.74
2017-12-04T11:21:46.392Z,2.61
2017-12-04T11:22:46.405Z,2.68
2017-12-04T11:23:45.909Z,2.67
2017-12-04T11:24:46.426Z,2.68
2017-12-04T11:25:46.187Z,2.71
2017-12-04T11:26:46.451Z,2.69
2017-12-04T11:27:45.961Z,2.74
2017-12-04T11:28:46.485Z,2.75
2017-12-04T11:29:46.488Z,2.85
2017-12-04T11:30:46.298Z,2.83
2017-12-04T11:31:46.511Z,2.86
2017-12-04T11:32:46.522Z,2.74
2017-12-04T11:33:46.487Z,2.85
2017-12-04T11:34:46.297Z,2.72
2017-12-04T11:35:46.313Z,2.72
2017-12-04T11:36:46.577Z,2.85
2017-12-04T11:37:46.584Z,2.69
2017-12-04T11:38:46.599Z,2.71
2017-12-04T11:39:46.614Z,2.71
2017-12-04T11:40:46.375Z,2.57
2017-12-04T11:41:46.384Z,2.6
2017-12-04T11:42:46.660Z,2.74
2017-12-04T11:43:46.664Z,2.8
2017-12-04T11:44:46.425Z,2.86
2017-12-04T11:45:46.179Z,2.71
2017-12-04T11:46:46.191Z,2.79
2017-12-04T11:47:46.721Z,2.87
2017-12-04T11:48:46.775Z,2.8
2017-12-04T11:49:46.783Z,2.93
2017-12-04T11:50:46.748Z,2.9
2017-12-04T11:51:46.758Z,2.97
2017-12-04T11:52:46.273Z,2.95
2017-12-04T11:53:46.532Z,3.05
2017-12-04T11:54:46.556Z,2.92
2017-12-04T11:55:46.553Z,2.93
2017-12-04T11:56:46.568Z,3.11
2017-12-04T11:57:46.580Z,3.01
2017-12-04T11:58:46.855Z,3.16
2017-12-04T11:59:46.605Z,3
2017-12-04T12:00:46.870Z,3
2017-12-04T12:01:46.629Z,3.08
2017-12-04T12:02:46.895Z,3.13
2017-12-04T12:03:46.713Z,3.18
2017-12-04T12:04:46.702Z,3.28
2017-12-04T12:05:46.934Z,3.28
2017-12-04T12:06:46.944Z,3.36
2017-12-04T12:07:46.703Z,3.32
2017-12-04T12:08:46.977Z,3.29
2017-12-04T12:09:46.989Z,3.31
2017-12-04T12:10:46.998Z,3.32
2017-12-04T12:11:46.757Z,3.25
2017-12-04T12:12:46.517Z,3.28
2017-12-04T12:13:46.791Z,3.31
2017-12-04T12:14:47.048Z,3.47
2017-12-04T12:15:47.061Z,3.32
2017-12-04T12:16:47.072Z,3.29
2017-12-04T12:17:47.083Z,3.32
2017-12-04T12:18:47.149Z,3.42
2017-12-04T12:19:47.109Z,3.32
2017-12-04T12:20:47.124Z,3.18
2017-12-04T12:21:46.883Z,3.29
2017-12-04T12:22:46.648Z,3.19
2017-12-04T12:23:46.909Z,3.21
2017-12-04T12:24:47.177Z,3.16
2017-12-04T12:25:47.202Z,3.04
2017-12-04T12:26:47.203Z,3.19
2017-12-04T12:27:47.227Z,3.21
2017-12-04T12:28:47.228Z,3.23
2017-12-04T12:29:47.242Z,3.19
2017-12-04T12:30:47.252Z,3.23
2017-12-04T12:31:47.011Z,3.21
2017-12-04T12:32:47.024Z,3.23
2017-12-04T12:33:47.049Z,3.18
2017-12-04T12:34:47.312Z,3.36
2017-12-04T12:35:47.317Z,3.47
2017-12-04T12:36:47.130Z,3.5
2017-12-04T12:37:47.143Z,3.45
2017-12-04T12:38:47.355Z,3.36
2017-12-04T12:39:47.117Z,3.32
2017-12-04T12:40:47.383Z,3.34
2017-12-04T12:41:46.886Z,3.25
2017-12-04T12:42:47.414Z,3.22
2017-12-04T12:43:47.420Z,3.25
2017-12-04T12:44:47.432Z,3.23
2017-12-04T12:45:47.444Z,3.18
2017-12-04T12:46:47.231Z,3.25
2017-12-04T12:47:47.219Z,3.36
2017-12-04T12:48:47.232Z,3.37
2017-12-04T12:49:47.246Z,3.34
2017-12-04T12:50:47.256Z,3.48
2017-12-04T12:51:47.529Z,3.5
2017-12-04T12:52:47.539Z,3.34
2017-12-04T12:53:47.295Z,3.5
2017-12-04T12:54:47.311Z,3.42
2017-12-04T12:55:47.621Z,3.36
2017-12-04T12:56:47.334Z,3.32
2017-12-04T12:57:47.598Z,3.18
2017-12-04T12:58:47.359Z,3.16
2017-12-04T12:59:47.372Z,3.11
2017-12-04T13:00:47.646Z,3.14
2017-12-04T13:01:47.399Z,3.14
2017-12-04T13:02:47.414Z,3.18
2017-12-04T13:03:47.421Z,3.1
2017-12-04T13:04:47.435Z,3.14
2017-12-04T13:05:47.449Z,3.21
2017-12-04T13:06:47.717Z,3.26
2017-12-04T13:07:47.475Z,3.23
2017-12-04T13:08:47.487Z,3.08
2017-12-04T13:09:47.508Z,3.1
2017-12-04T13:10:47.812Z,3.05
2017-12-04T13:11:47.777Z,3.08
2017-12-04T13:12:47.586Z,3.05
2017-12-04T13:13:47.552Z,3.04
2017-12-04T13:14:47.814Z,3.19
2017-12-04T13:15:47.825Z,3.14
2017-12-04T13:16:47.591Z,3.14
2017-12-04T13:17:47.856Z,3.05
2017-12-04T13:18:47.614Z,3.1
2017-12-04T13:19:47.624Z,2.97
2017-12-04T13:20:47.899Z,3.1
2017-12-04T13:21:47.904Z,3.03